sensor_id;sensor_type;location;lat;lon;timestamp;temperature;humidity
8953;DHT22;4511;50.890;8.054;2023-07-30T00:02:01;17.70;99.90
8953;DHT22;4511;50.890;8.054;2023-07-30T00:04:27;17.70;99.90
8953;DHT22;4511;50.890;8.054;2023-07-30T00:06:54;17.70;99.90
8953;DHT22;4511;50.890;8.054;2023-07-30T00:09:21;17.60;99.90
8953;DHT22;4511;50.890;8.054;2023-07-30T00:11:48;17.60;99.90
8953;DHT22;4511;50.890;8.054;2023-07-30T00:14:16;17.50;99.90
8953;DHT22;4511;50.890;8.054;2023-07-30T00:16:43;17.50;99.90
8953;DHT22;4511;50.890;8.054;2023-07-30T00:19:12;17.60;99.90
8953;DHT22;4511;50.890;8.054;2023-07-30T00:21:38;17.60;99.90
8953;DHT22;4511;50.890;8.054;2023-07-30T00:24:05;17.50;99.90
8953;DHT22;4511;50.890;8.054;2023-07-30T00:26:32;17.60;99.90
8953;DHT22;4511;50.890;8.054;2023-07-30T00:28:59;17.60;99.90
8953;DHT22;4511;50.890;8.054;2023-07-30T00:31:27;17.50;99.90
8953;DHT22;4511;50.890;8.054;2023-07-30T00:33:53;17.50;99.90
8953;DHT22;4511;50.890;8.054;2023-07-30T00:36:20;17.40;99.90
8953;DHT22;4511;50.890;8.054;2023-07-30T00:38:47;17.30;99.90
8953;DHT22;4511;50.890;8.054;2023-07-30T00:41:14;17.30;99.90
8953;DHT22;4511;50.890;8.054;2023-07-30T00:43:41;17.40;99.90
8953;DHT22;4511;50.890;8.054;2023-07-30T00:46:08;17.40;99.90
8953;DHT22;4511;50.890;8.054;2023-07-30T00:48:36;17.40;99.90
8953;DHT22;4511;50.890;8.054;2023-07-30T00:51:03;17.40;99.90
8953;DHT22;4511;50.890;8.054;2023-07-30T00:53:31;17.30;99.90
8953;DHT22;4511;50.890;8.054;2023-07-30T00:55:58;17.20;99.90
8953;DHT22;4511;50.890;8.054;2023-07-30T00:58:25;17.20;99.90
8953;DHT22;4511;50.890;8.054;2023-07-30T01:00:52;17.20;99.90
8953;DHT22;4511;50.890;8.054;2023-07-30T01:03:19;17.20;99.90
8953;DHT22;4511;50.890;8.054;2023-07-30T01:05:47;17.20;99.90
8953;DHT22;4511;50.890;8.054;2023-07-30T01:08:14;17.20;99.90
8953;DHT22;4511;50.890;8.054;2023-07-30T01:10:41;17.20;99.90
8953;DHT22;4511;50.890;8.054;2023-07-30T01:13:09;17.20;99.90
8953;DHT22;4511;50.890;8.054;2023-07-30T01:15:37;17.20;99.90
8953;DHT22;4511;50.890;8.054;2023-07-30T01:18:04;17.20;99.90
8953;DHT22;4511;50.890;8.054;2023-07-30T01:20:31;17.10;99.90
8953;DHT22;4511;50.890;8.054;2023-07-30T01:23:00;17.10;99.90
8953;DHT22;4511;50.890;8.054;2023-07-30T01:25:29;17.00;99.90
8953;DHT22;4511;50.890;8.054;2023-07-30T01:28:00;17.00;99.90
8953;DHT22;4511;50.890;8.054;2023-07-30T01:30:30;17.00;99.90
8953;DHT22;4511;50.890;8.054;2023-07-30T01:32:59;16.90;99.90
8953;DHT22;4511;50.890;8.054;2023-07-30T01:35:27;16.90;99.90
8953;DHT22;4511;50.890;8.054;2023-07-30T01:37:55;16.90;99.90
8953;DHT22;4511;50.890;8.054;2023-07-30T01:40:23;17.00;99.90
8953;DHT22;4511;50.890;8.054;2023-07-30T01:42:50;17.10;99.90
8953;DHT22;4511;50.890;8.054;2023-07-30T01:45:17;17.10;99.90
8953;DHT22;4511;50.890;8.054;2023-07-30T01:47:44;17.10;99.90
8953;DHT22;4511;50.890;8.054;2023-07-30T01:50:11;17.10;99.90
8953;DHT22;4511;50.890;8.054;2023-07-30T01:52:37;17.00;99.90
8953;DHT22;4511;50.890;8.054;2023-07-30T01:55:05;17.00;99.90
8953;DHT22;4511;50.890;8.054;2023-07-30T01:57:33;17.10;99.90
8953;DHT22;4511;50.890;8.054;2023-07-30T02:00:00;17.10;99.90
8953;DHT22;4511;50.890;8.054;2023-07-30T02:02:28;17.10;99.90
8953;DHT22;4511;50.890;8.054;2023-07-30T02:04:55;17.20;99.90
8953;DHT22;4511;50.890;8.054;2023-07-30T02:07:22;17.10;99.90
8953;DHT22;4511;50.890;8.054;2023-07-30T02:09:48;17.10;99.90
8953;DHT22;4511;50.890;8.054;2023-07-30T02:12:15;17.10;99.90
8953;DHT22;4511;50.890;8.054;2023-07-30T02:14:43;17.20;99.90
8953;DHT22;4511;50.890;8.054;2023-07-30T02:17:10;17.20;99.90
8953;DHT22;4511;50.890;8.054;2023-07-30T02:19:37;17.10;99.90
8953;DHT22;4511;50.890;8.054;2023-07-30T02:22:04;17.20;99.90
8953;DHT22;4511;50.890;8.054;2023-07-30T02:24:31;17.20;99.90
8953;DHT22;4511;50.890;8.054;2023-07-30T02:26:58;17.20;99.90
8953;DHT22;4511;50.890;8.054;2023-07-30T02:29:25;17.20;99.90
8953;DHT22;4511;50.890;8.054;2023-07-30T02:31:53;17.10;99.90
8953;DHT22;4511;50.890;8.054;2023-07-30T02:34:20;17.10;99.90
8953;DHT22;4511;50.890;8.054;2023-07-30T02:36:49;17.10;99.90
8953;DHT22;4511;50.890;8.054;2023-07-30T02:39:16;16.90;99.90
8953;DHT22;4511;50.890;8.054;2023-07-30T02:41:42;16.90;99.90
8953;DHT22;4511;50.890;8.054;2023-07-30T02:44:09;16.90;99.90
8953;DHT22;4511;50.890;8.054;2023-07-30T02:46:36;16.90;99.90
8953;DHT22;4511;50.890;8.054;2023-07-30T02:49:04;16.90;99.90
8953;DHT22;4511;50.890;8.054;2023-07-30T02:51:31;16.90;99.90
8953;DHT22;4511;50.890;8.054;2023-07-30T02:53:58;16.80;99.90
8953;DHT22;4511;50.890;8.054;2023-07-30T02:56:25;16.80;99.90
8953;DHT22;4511;50.890;8.054;2023-07-30T02:58:52;16.70;99.90
8953;DHT22;4511;50.890;8.054;2023-07-30T03:01:19;16.80;99.90
8953;DHT22;4511;50.890;8.054;2023-07-30T03:03:46;16.80;99.90
8953;DHT22;4511;50.890;8.054;2023-07-30T03:06:16;16.90;99.90
8953;DHT22;4511;50.890;8.054;2023-07-30T03:08:43;16.90;99.90
8953;DHT22;4511;50.890;8.054;2023-07-30T03:11:10;16.90;99.90
8953;DHT22;4511;50.890;8.054;2023-07-30T03:13:38;17.00;99.90
8953;DHT22;4511;50.890;8.054;2023-07-30T03:16:05;17.00;99.90
8953;DHT22;4511;50.890;8.054;2023-07-30T03:18:32;17.00;99.90
8953;DHT22;4511;50.890;8.054;2023-07-30T03:20:59;17.00;99.90
8953;DHT22;4511;50.890;8.054;2023-07-30T03:23:28;17.10;99.90
8953;DHT22;4511;50.890;8.054;2023-07-30T03:25:54;17.00;99.90
8953;DHT22;4511;50.890;8.054;2023-07-30T03:28:21;17.00;99.90
8953;DHT22;4511;50.890;8.054;2023-07-30T03:30:48;17.10;99.90
8953;DHT22;4511;50.890;8.054;2023-07-30T03:33:15;17.10;99.90
8953;DHT22;4511;50.890;8.054;2023-07-30T03:35:42;17.10;99.90
8953;DHT22;4511;50.890;8.054;2023-07-30T03:38:09;17.10;99.90
8953;DHT22;4511;50.890;8.054;2023-07-30T03:40:37;17.20;99.90
8953;DHT22;4511;50.890;8.054;2023-07-30T03:43:04;17.20;99.90
8953;DHT22;4511;50.890;8.054;2023-07-30T03:45:30;17.20;99.90
8953;DHT22;4511;50.890;8.054;2023-07-30T03:47:58;17.20;99.90
8953;DHT22;4511;50.890;8.054;2023-07-30T03:50:25;17.20;99.90
8953;DHT22;4511;50.890;8.054;2023-07-30T03:52:51;17.20;99.90
8953;DHT22;4511;50.890;8.054;2023-07-30T03:55:18;17.20;99.90
8953;DHT22;4511;50.890;8.054;2023-07-30T03:57:46;17.20;99.90
8953;DHT22;4511;50.890;8.054;2023-07-30T04:00:13;17.10;99.90
8953;DHT22;4511;50.890;8.054;2023-07-30T04:02:40;17.10;99.90
8953;DHT22;4511;50.890;8.054;2023-07-30T04:05:07;17.20;99.90
8953;DHT22;4511;50.890;8.054;2023-07-30T04:07:34;17.20;99.90
8953;DHT22;4511;50.890;8.054;2023-07-30T04:10:01;17.20;99.90
8953;DHT22;4511;50.890;8.054;2023-07-30T04:12:28;17.10;99.90
8953;DHT22;4511;50.890;8.054;2023-07-30T04:14:56;17.20;99.90
8953;DHT22;4511;50.890;8.054;2023-07-30T04:17:22;17.10;99.90
8953;DHT22;4511;50.890;8.054;2023-07-30T04:19:49;16.80;99.90
8953;DHT22;4511;50.890;8.054;2023-07-30T04:22:16;16.80;99.90
8953;DHT22;4511;50.890;8.054;2023-07-30T04:24:43;16.80;99.90
8953;DHT22;4511;50.890;8.054;2023-07-30T04:27:10;16.80;99.90
8953;DHT22;4511;50.890;8.054;2023-07-30T04:29:36;16.90;99.90
8953;DHT22;4511;50.890;8.054;2023-07-30T04:32:06;16.90;99.90
8953;DHT22;4511;50.890;8.054;2023-07-30T04:34:33;16.90;99.90
8953;DHT22;4511;50.890;8.054;2023-07-30T04:36:59;16.90;99.90
8953;DHT22;4511;50.890;8.054;2023-07-30T04:39:27;17.00;99.90
8953;DHT22;4511;50.890;8.054;2023-07-30T04:41:54;17.10;99.90
8953;DHT22;4511;50.890;8.054;2023-07-30T04:44:21;17.10;99.90
8953;DHT22;4511;50.890;8.054;2023-07-30T04:46:47;17.10;99.90
8953;DHT22;4511;50.890;8.054;2023-07-30T04:49:16;17.10;99.90
8953;DHT22;4511;50.890;8.054;2023-07-30T04:51:42;17.20;99.90
8953;DHT22;4511;50.890;8.054;2023-07-30T04:54:09;17.20;99.90
8953;DHT22;4511;50.890;8.054;2023-07-30T04:56:36;17.20;99.90
8953;DHT22;4511;50.890;8.054;2023-07-30T04:59:03;17.20;99.90
8953;DHT22;4511;50.890;8.054;2023-07-30T05:01:30;17.30;99.90
8953;DHT22;4511;50.890;8.054;2023-07-30T05:03:57;17.30;99.90
8953;DHT22;4511;50.890;8.054;2023-07-30T05:06:25;17.40;99.90
8953;DHT22;4511;50.890;8.054;2023-07-30T05:08:52;17.50;99.90
8953;DHT22;4511;50.890;8.054;2023-07-30T05:11:19;17.50;99.90
8953;DHT22;4511;50.890;8.054;2023-07-30T05:13:46;17.50;99.90
8953;DHT22;4511;50.890;8.054;2023-07-30T05:16:13;17.40;99.90
8953;DHT22;4511;50.890;8.054;2023-07-30T05:18:40;17.20;99.90
8953;DHT22;4511;50.890;8.054;2023-07-30T05:21:07;17.20;99.90
8953;DHT22;4511;50.890;8.054;2023-07-30T05:23:35;17.20;99.90
8953;DHT22;4511;50.890;8.054;2023-07-30T05:26:01;17.40;99.90
8953;DHT22;4511;50.890;8.054;2023-07-30T05:28:28;17.50;99.90
8953;DHT22;4511;50.890;8.054;2023-07-30T05:30:55;17.40;99.90
8953;DHT22;4511;50.890;8.054;2023-07-30T05:33:22;17.30;99.90
8953;DHT22;4511;50.890;8.054;2023-07-30T05:35:49;17.10;99.90
8953;DHT22;4511;50.890;8.054;2023-07-30T05:38:15;17.10;99.90
8953;DHT22;4511;50.890;8.054;2023-07-30T05:40:44;17.20;99.90
8953;DHT22;4511;50.890;8.054;2023-07-30T05:43:11;17.20;99.90
8953;DHT22;4511;50.890;8.054;2023-07-30T05:45:37;17.30;99.90
8953;DHT22;4511;50.890;8.054;2023-07-30T05:48:04;17.20;99.90
8953;DHT22;4511;50.890;8.054;2023-07-30T05:50:31;16.90;99.90
8953;DHT22;4511;50.890;8.054;2023-07-30T05:52:58;16.90;99.90
8953;DHT22;4511;50.890;8.054;2023-07-30T05:55:25;16.90;99.90
8953;DHT22;4511;50.890;8.054;2023-07-30T05:57:53;17.00;99.90
8953;DHT22;4511;50.890;8.054;2023-07-30T06:00:21;17.10;99.90
8953;DHT22;4511;50.890;8.054;2023-07-30T06:02:47;16.80;99.90
8953;DHT22;4511;50.890;8.054;2023-07-30T06:05:14;16.90;99.90
8953;DHT22;4511;50.890;8.054;2023-07-30T06:07:41;16.90;99.90
8953;DHT22;4511;50.890;8.054;2023-07-30T06:10:08;16.90;99.90
8953;DHT22;4511;50.890;8.054;2023-07-30T06:12:35;16.80;99.90
8953;DHT22;4511;50.890;8.054;2023-07-30T06:15:06;16.80;99.90
8953;DHT22;4511;50.890;8.054;2023-07-30T06:17:33;16.90;99.90
8953;DHT22;4511;50.890;8.054;2023-07-30T06:20:00;16.80;99.90
8953;DHT22;4511;50.890;8.054;2023-07-30T06:22:27;16.70;99.90
8953;DHT22;4511;50.890;8.054;2023-07-30T06:24:53;16.50;99.90
8953;DHT22;4511;50.890;8.054;2023-07-30T06:27:20;16.50;99.90
8953;DHT22;4511;50.890;8.054;2023-07-30T06:29:47;16.60;99.90
8953;DHT22;4511;50.890;8.054;2023-07-30T06:32:15;16.70;99.90
8953;DHT22;4511;50.890;8.054;2023-07-30T06:34:42;16.70;99.90
8953;DHT22;4511;50.890;8.054;2023-07-30T06:37:09;16.90;99.90
8953;DHT22;4511;50.890;8.054;2023-07-30T06:39:36;16.80;99.90
8953;DHT22;4511;50.890;8.054;2023-07-30T06:42:03;16.70;99.90
8953;DHT22;4511;50.890;8.054;2023-07-30T06:44:30;17.00;99.90
8953;DHT22;4511;50.890;8.054;2023-07-30T06:46:56;16.90;99.90
8953;DHT22;4511;50.890;8.054;2023-07-30T06:49:25;16.90;99.90
8953;DHT22;4511;50.890;8.054;2023-07-30T06:51:52;16.90;99.90
8953;DHT22;4511;50.890;8.054;2023-07-30T06:54:19;16.70;99.90
8953;DHT22;4511;50.890;8.054;2023-07-30T06:56:46;16.70;99.90
8953;DHT22;4511;50.890;8.054;2023-07-30T06:59:13;16.60;99.90
8953;DHT22;4511;50.890;8.054;2023-07-30T07:01:39;16.50;99.90
8953;DHT22;4511;50.890;8.054;2023-07-30T07:04:06;16.60;99.90
8953;DHT22;4511;50.890;8.054;2023-07-30T07:06:34;16.70;99.90
8953;DHT22;4511;50.890;8.054;2023-07-30T07:09:01;16.80;99.90
8953;DHT22;4511;50.890;8.054;2023-07-30T07:11:28;16.70;99.90
8953;DHT22;4511;50.890;8.054;2023-07-30T07:13:55;16.90;99.90
8953;DHT22;4511;50.890;8.054;2023-07-30T07:16:22;16.80;99.90
8953;DHT22;4511;50.890;8.054;2023-07-30T07:18:49;16.80;99.90
8953;DHT22;4511;50.890;8.054;2023-07-30T07:21:15;16.50;99.90
8953;DHT22;4511;50.890;8.054;2023-07-30T07:23:43;16.60;99.90
8953;DHT22;4511;50.890;8.054;2023-07-30T07:26:10;16.60;99.90
8953;DHT22;4511;50.890;8.054;2023-07-30T07:28:37;16.70;99.90
8953;DHT22;4511;50.890;8.054;2023-07-30T07:31:04;16.30;99.90
8953;DHT22;4511;50.890;8.054;2023-07-30T07:33:30;16.00;99.90
8953;DHT22;4511;50.890;8.054;2023-07-30T07:36:04;15.90;99.90
8953;DHT22;4511;50.890;8.054;2023-07-30T07:38:31;15.60;99.90
8953;DHT22;4511;50.890;8.054;2023-07-30T07:41:00;15.40;99.90
8953;DHT22;4511;50.890;8.054;2023-07-30T07:43:27;15.30;99.90
8953;DHT22;4511;50.890;8.054;2023-07-30T07:45:54;15.30;99.90
8953;DHT22;4511;50.890;8.054;2023-07-30T07:48:21;15.50;99.90
8953;DHT22;4511;50.890;8.054;2023-07-30T07:50:49;15.30;99.90
8953;DHT22;4511;50.890;8.054;2023-07-30T07:53:15;15.20;99.90
8953;DHT22;4511;50.890;8.054;2023-07-30T07:55:42;15.30;99.90
8953;DHT22;4511;50.890;8.054;2023-07-30T07:58:10;15.30;99.90
8953;DHT22;4511;50.890;8.054;2023-07-30T08:00:37;15.30;99.90
8953;DHT22;4511;50.890;8.054;2023-07-30T08:03:04;15.40;99.90
8953;DHT22;4511;50.890;8.054;2023-07-30T08:05:31;15.20;99.90
8953;DHT22;4511;50.890;8.054;2023-07-30T08:07:57;15.40;99.90
8953;DHT22;4511;50.890;8.054;2023-07-30T08:10:24;15.50;99.90
8953;DHT22;4511;50.890;8.054;2023-07-30T08:12:51;15.30;99.90
8953;DHT22;4511;50.890;8.054;2023-07-30T08:15:19;15.40;99.90
8953;DHT22;4511;50.890;8.054;2023-07-30T08:17:46;15.40;99.90
8953;DHT22;4511;50.890;8.054;2023-07-30T08:20:13;15.40;99.90
8953;DHT22;4511;50.890;8.054;2023-07-30T08:22:40;15.60;99.90
8953;DHT22;4511;50.890;8.054;2023-07-30T08:25:07;15.60;99.90
8953;DHT22;4511;50.890;8.054;2023-07-30T08:27:34;15.80;99.90
8953;DHT22;4511;50.890;8.054;2023-07-30T08:30:01;15.60;99.90
8953;DHT22;4511;50.890;8.054;2023-07-30T08:32:29;15.70;99.90
8953;DHT22;4511;50.890;8.054;2023-07-30T08:34:56;15.40;99.90
8953;DHT22;4511;50.890;8.054;2023-07-30T08:37:22;15.50;99.90
8953;DHT22;4511;50.890;8.054;2023-07-30T08:39:50;15.40;99.90
8953;DHT22;4511;50.890;8.054;2023-07-30T08:42:16;15.00;99.90
8953;DHT22;4511;50.890;8.054;2023-07-30T08:44:43;14.90;99.90
8953;DHT22;4511;50.890;8.054;2023-07-30T08:47:10;14.80;99.90
8953;DHT22;4511;50.890;8.054;2023-07-30T08:49:38;14.70;99.90
8953;DHT22;4511;50.890;8.054;2023-07-30T08:52:08;14.80;99.90
8953;DHT22;4511;50.890;8.054;2023-07-30T08:54:36;14.80;99.90
8953;DHT22;4511;50.890;8.054;2023-07-30T08:57:04;14.90;99.90
8953;DHT22;4511;50.890;8.054;2023-07-30T08:59:36;15.20;99.90
8953;DHT22;4511;50.890;8.054;2023-07-30T09:02:04;15.40;99.90
8953;DHT22;4511;50.890;8.054;2023-07-30T09:04:36;15.60;99.90
8953;DHT22;4511;50.890;8.054;2023-07-30T09:07:08;15.80;99.90
8953;DHT22;4511;50.890;8.054;2023-07-30T09:09:36;15.90;99.90
8953;DHT22;4511;50.890;8.054;2023-07-30T09:12:04;15.90;99.90
8953;DHT22;4511;50.890;8.054;2023-07-30T09:14:31;15.90;99.90
8953;DHT22;4511;50.890;8.054;2023-07-30T09:16:58;15.80;99.90
8953;DHT22;4511;50.890;8.054;2023-07-30T09:19:25;16.00;99.90
8953;DHT22;4511;50.890;8.054;2023-07-30T09:21:52;16.20;99.90
8953;DHT22;4511;50.890;8.054;2023-07-30T09:24:22;16.40;99.90
8953;DHT22;4511;50.890;8.054;2023-07-30T09:26:49;16.40;99.90
8953;DHT22;4511;50.890;8.054;2023-07-30T09:29:16;16.40;99.90
8953;DHT22;4511;50.890;8.054;2023-07-30T09:31:53;16.40;99.90
8953;DHT22;4511;50.890;8.054;2023-07-30T09:34:21;16.10;99.90
8953;DHT22;4511;50.890;8.054;2023-07-30T09:36:50;16.20;99.90
8953;DHT22;4511;50.890;8.054;2023-07-30T09:39:19;16.30;99.90
8953;DHT22;4511;50.890;8.054;2023-07-30T09:41:48;16.00;99.90
8953;DHT22;4511;50.890;8.054;2023-07-30T09:44:17;15.70;99.90
8953;DHT22;4511;50.890;8.054;2023-07-30T09:46:45;15.90;99.90
8953;DHT22;4511;50.890;8.054;2023-07-30T09:49:12;16.00;99.90
8953;DHT22;4511;50.890;8.054;2023-07-30T09:51:39;16.40;99.90
8953;DHT22;4511;50.890;8.054;2023-07-30T09:54:06;16.70;99.90
8953;DHT22;4511;50.890;8.054;2023-07-30T09:56:34;16.90;99.90
8953;DHT22;4511;50.890;8.054;2023-07-30T09:59:02;17.10;99.90
8953;DHT22;4511;50.890;8.054;2023-07-30T10:01:30;17.30;99.90
8953;DHT22;4511;50.890;8.054;2023-07-30T10:03:58;17.40;99.90
8953;DHT22;4511;50.890;8.054;2023-07-30T10:06:25;17.20;99.90
8953;DHT22;4511;50.890;8.054;2023-07-30T10:08:55;17.30;99.90
8953;DHT22;4511;50.890;8.054;2023-07-30T10:11:23;17.40;99.90
8953;DHT22;4511;50.890;8.054;2023-07-30T10:13:51;17.40;99.90
8953;DHT22;4511;50.890;8.054;2023-07-30T10:16:25;17.00;99.90
8953;DHT22;4511;50.890;8.054;2023-07-30T10:18:55;17.00;99.90
8953;DHT22;4511;50.890;8.054;2023-07-30T10:21:24;16.80;99.90
8953;DHT22;4511;50.890;8.054;2023-07-30T10:23:58;16.70;99.90
8953;DHT22;4511;50.890;8.054;2023-07-30T10:26:27;16.80;99.90
8953;DHT22;4511;50.890;8.054;2023-07-30T10:29:10;16.70;99.90
8953;DHT22;4511;50.890;8.054;2023-07-30T10:31:43;16.60;99.90
8953;DHT22;4511;50.890;8.054;2023-07-30T10:34:11;16.90;99.90
8953;DHT22;4511;50.890;8.054;2023-07-30T10:36:42;17.20;99.90
8953;DHT22;4511;50.890;8.054;2023-07-30T10:39:14;16.70;99.90
8953;DHT22;4511;50.890;8.054;2023-07-30T10:41:43;17.00;99.90
8953;DHT22;4511;50.890;8.054;2023-07-30T10:44:18;17.10;99.90
8953;DHT22;4511;50.890;8.054;2023-07-30T10:46:47;16.80;99.90
8953;DHT22;4511;50.890;8.054;2023-07-30T10:49:13;17.40;99.90
8953;DHT22;4511;50.890;8.054;2023-07-30T10:51:40;18.00;99.90
8953;DHT22;4511;50.890;8.054;2023-07-30T10:54:07;17.90;99.90
8953;DHT22;4511;50.890;8.054;2023-07-30T10:56:35;18.00;99.90
8953;DHT22;4511;50.890;8.054;2023-07-30T10:59:03;17.90;99.90
8953;DHT22;4511;50.890;8.054;2023-07-30T11:01:31;18.10;99.90
8953;DHT22;4511;50.890;8.054;2023-07-30T11:04:06;18.20;99.90
8953;DHT22;4511;50.890;8.054;2023-07-30T11:06:33;18.10;99.90
8953;DHT22;4511;50.890;8.054;2023-07-30T11:08:59;18.00;99.90
8953;DHT22;4511;50.890;8.054;2023-07-30T11:11:26;17.60;99.90
8953;DHT22;4511;50.890;8.054;2023-07-30T11:13:54;17.90;99.90
8953;DHT22;4511;50.890;8.054;2023-07-30T11:16:21;17.80;99.90
8953;DHT22;4511;50.890;8.054;2023-07-30T11:18:47;17.70;99.90
8953;DHT22;4511;50.890;8.054;2023-07-30T11:21:17;17.70;99.90
8953;DHT22;4511;50.890;8.054;2023-07-30T11:23:45;17.70;99.90
8953;DHT22;4511;50.890;8.054;2023-07-30T11:26:15;17.90;99.90
8953;DHT22;4511;50.890;8.054;2023-07-30T11:28:42;18.10;99.90
8953;DHT22;4511;50.890;8.054;2023-07-30T11:31:11;18.10;99.90
8953;DHT22;4511;50.890;8.054;2023-07-30T11:33:40;18.00;99.90
8953;DHT22;4511;50.890;8.054;2023-07-30T11:36:09;18.40;99.90
8953;DHT22;4511;50.890;8.054;2023-07-30T11:38:38;18.80;99.90
8953;DHT22;4511;50.890;8.054;2023-07-30T11:41:06;18.70;99.90
8953;DHT22;4511;50.890;8.054;2023-07-30T11:43:36;19.30;99.90
8953;DHT22;4511;50.890;8.054;2023-07-30T11:46:10;19.40;99.90
8953;DHT22;4511;50.890;8.054;2023-07-30T11:48:37;18.80;99.90
8953;DHT22;4511;50.890;8.054;2023-07-30T11:51:04;19.00;99.90
8953;DHT22;4511;50.890;8.054;2023-07-30T11:53:49;19.20;99.90
8953;DHT22;4511;50.890;8.054;2023-07-30T11:56:17;19.00;99.90
8953;DHT22;4511;50.890;8.054;2023-07-30T11:58:45;19.00;99.90
8953;DHT22;4511;50.890;8.054;2023-07-30T12:01:12;18.80;99.90
8953;DHT22;4511;50.890;8.054;2023-07-30T12:03:39;18.50;99.90
8953;DHT22;4511;50.890;8.054;2023-07-30T12:06:06;18.70;99.90
8953;DHT22;4511;50.890;8.054;2023-07-30T12:08:34;18.60;99.90
8953;DHT22;4511;50.890;8.054;2023-07-30T12:11:04;18.60;99.90
8953;DHT22;4511;50.890;8.054;2023-07-30T12:13:31;18.90;99.90
8953;DHT22;4511;50.890;8.054;2023-07-30T12:15:59;19.40;99.90
8953;DHT22;4511;50.890;8.054;2023-07-30T12:18:26;19.40;99.90
8953;DHT22;4511;50.890;8.054;2023-07-30T12:20:54;19.10;99.90
8953;DHT22;4511;50.890;8.054;2023-07-30T12:23:21;19.20;99.90
8953;DHT22;4511;50.890;8.054;2023-07-30T12:25:48;19.30;99.90
8953;DHT22;4511;50.890;8.054;2023-07-30T12:28:17;18.90;99.90
8953;DHT22;4511;50.890;8.054;2023-07-30T12:30:46;18.90;99.90
8953;DHT22;4511;50.890;8.054;2023-07-30T12:33:13;19.50;99.90
8953;DHT22;4511;50.890;8.054;2023-07-30T12:35:39;19.60;99.90
8953;DHT22;4511;50.890;8.054;2023-07-30T12:38:06;19.80;99.90
8953;DHT22;4511;50.890;8.054;2023-07-30T12:40:33;19.50;99.90
8953;DHT22;4511;50.890;8.054;2023-07-30T12:43:01;20.40;99.90
8953;DHT22;4511;50.890;8.054;2023-07-30T12:45:29;19.90;99.90
8953;DHT22;4511;50.890;8.054;2023-07-30T12:47:57;20.00;99.90
8953;DHT22;4511;50.890;8.054;2023-07-30T12:50:24;20.30;99.90
8953;DHT22;4511;50.890;8.054;2023-07-30T12:52:51;21.00;99.90
8953;DHT22;4511;50.890;8.054;2023-07-30T12:55:18;20.60;99.90
8953;DHT22;4511;50.890;8.054;2023-07-30T12:57:45;20.70;99.90
8953;DHT22;4511;50.890;8.054;2023-07-30T13:00:13;20.50;99.90
8953;DHT22;4511;50.890;8.054;2023-07-30T13:02:41;20.20;99.90
8953;DHT22;4511;50.890;8.054;2023-07-30T13:05:08;20.30;99.90
8953;DHT22;4511;50.890;8.054;2023-07-30T13:07:35;20.50;99.90
8953;DHT22;4511;50.890;8.054;2023-07-30T13:10:03;20.50;99.90
8953;DHT22;4511;50.890;8.054;2023-07-30T13:12:30;20.20;99.90
8953;DHT22;4511;50.890;8.054;2023-07-30T13:14:57;20.20;99.90
8953;DHT22;4511;50.890;8.054;2023-07-30T13:17:24;20.10;99.90
8953;DHT22;4511;50.890;8.054;2023-07-30T13:19:52;19.70;99.90
8953;DHT22;4511;50.890;8.054;2023-07-30T13:22:19;19.60;99.90
8953;DHT22;4511;50.890;8.054;2023-07-30T13:24:46;19.80;99.90
8953;DHT22;4511;50.890;8.054;2023-07-30T13:27:12;19.90;99.90
8953;DHT22;4511;50.890;8.054;2023-07-30T13:29:39;19.80;99.90
8953;DHT22;4511;50.890;8.054;2023-07-30T13:32:06;19.60;99.90
8953;DHT22;4511;50.890;8.054;2023-07-30T13:34:33;19.40;99.90
8953;DHT22;4511;50.890;8.054;2023-07-30T13:37:01;19.70;99.90
8953;DHT22;4511;50.890;8.054;2023-07-30T13:39:29;20.20;99.90
8953;DHT22;4511;50.890;8.054;2023-07-30T13:41:56;20.30;99.90
8953;DHT22;4511;50.890;8.054;2023-07-30T13:44:22;20.10;99.90
8953;DHT22;4511;50.890;8.054;2023-07-30T13:46:49;20.00;99.90
8953;DHT22;4511;50.890;8.054;2023-07-30T13:49:17;19.60;99.90
8953;DHT22;4511;50.890;8.054;2023-07-30T13:51:43;19.30;99.90
8953;DHT22;4511;50.890;8.054;2023-07-30T13:54:11;19.50;99.90
8953;DHT22;4511;50.890;8.054;2023-07-30T13:56:38;19.60;99.90
8953;DHT22;4511;50.890;8.054;2023-07-30T13:59:05;19.50;99.90
8953;DHT22;4511;50.890;8.054;2023-07-30T14:01:32;19.50;99.90
8953;DHT22;4511;50.890;8.054;2023-07-30T14:03:59;19.40;99.90
8953;DHT22;4511;50.890;8.054;2023-07-30T14:06:26;19.50;99.90
8953;DHT22;4511;50.890;8.054;2023-07-30T14:08:52;19.20;99.90
8953;DHT22;4511;50.890;8.054;2023-07-30T14:11:21;20.10;99.90
8953;DHT22;4511;50.890;8.054;2023-07-30T14:13:47;21.00;99.90
8953;DHT22;4511;50.890;8.054;2023-07-30T14:16:14;21.30;99.90
8953;DHT22;4511;50.890;8.054;2023-07-30T14:18:41;21.50;99.90
8953;DHT22;4511;50.890;8.054;2023-07-30T14:21:08;21.30;99.90
8953;DHT22;4511;50.890;8.054;2023-07-30T14:23:38;20.60;99.90
8953;DHT22;4511;50.890;8.054;2023-07-30T14:26:04;20.40;99.90
8953;DHT22;4511;50.890;8.054;2023-07-30T14:28:33;20.40;99.90
8953;DHT22;4511;50.890;8.054;2023-07-30T14:31:00;20.10;99.90
8953;DHT22;4511;50.890;8.054;2023-07-30T14:33:27;20.00;99.90
8953;DHT22;4511;50.890;8.054;2023-07-30T14:35:54;19.90;99.90
8953;DHT22;4511;50.890;8.054;2023-07-30T14:38:21;19.70;99.90
8953;DHT22;4511;50.890;8.054;2023-07-30T14:40:48;20.00;99.90
8953;DHT22;4511;50.890;8.054;2023-07-30T14:43:15;19.70;99.90
8953;DHT22;4511;50.890;8.054;2023-07-30T14:45:43;19.80;99.90
8953;DHT22;4511;50.890;8.054;2023-07-30T14:48:10;20.20;99.90
8953;DHT22;4511;50.890;8.054;2023-07-30T14:50:37;20.20;99.90
8953;DHT22;4511;50.890;8.054;2023-07-30T14:53:03;21.00;99.90
8953;DHT22;4511;50.890;8.054;2023-07-30T14:55:30;21.60;99.90
8953;DHT22;4511;50.890;8.054;2023-07-30T14:57:57;22.40;99.90
8953;DHT22;4511;50.890;8.054;2023-07-30T15:00:26;23.20;99.90
8953;DHT22;4511;50.890;8.054;2023-07-30T15:02:54;23.80;99.90
8953;DHT22;4511;50.890;8.054;2023-07-30T15:05:21;23.50;99.90
8953;DHT22;4511;50.890;8.054;2023-07-30T15:07:48;23.80;99.90
8953;DHT22;4511;50.890;8.054;2023-07-30T15:10:15;23.20;99.90
8953;DHT22;4511;50.890;8.054;2023-07-30T15:12:42;22.00;99.90
8953;DHT22;4511;50.890;8.054;2023-07-30T15:15:10;21.30;99.90
8953;DHT22;4511;50.890;8.054;2023-07-30T15:17:37;21.20;99.90
8953;DHT22;4511;50.890;8.054;2023-07-30T15:20:06;20.60;99.90
8953;DHT22;4511;50.890;8.054;2023-07-30T15:22:33;20.70;99.90
8953;DHT22;4511;50.890;8.054;2023-07-30T15:25:00;21.10;99.90
8953;DHT22;4511;50.890;8.054;2023-07-30T15:27:27;21.20;99.90
8953;DHT22;4511;50.890;8.054;2023-07-30T15:29:53;21.80;99.90
8953;DHT22;4511;50.890;8.054;2023-07-30T15:32:21;23.00;99.90
8953;DHT22;4511;50.890;8.054;2023-07-30T15:34:48;22.40;99.90
8953;DHT22;4511;50.890;8.054;2023-07-30T15:37:17;21.70;99.90
8953;DHT22;4511;50.890;8.054;2023-07-30T15:39:43;22.00;99.90
8953;DHT22;4511;50.890;8.054;2023-07-30T15:42:10;22.50;99.90
8953;DHT22;4511;50.890;8.054;2023-07-30T15:44:37;22.20;99.90
8953;DHT22;4511;50.890;8.054;2023-07-30T15:47:04;22.00;99.90
8953;DHT22;4511;50.890;8.054;2023-07-30T15:49:31;21.90;99.90
8953;DHT22;4511;50.890;8.054;2023-07-30T15:51:59;21.90;99.90
8953;DHT22;4511;50.890;8.054;2023-07-30T15:54:34;22.20;99.90
8953;DHT22;4511;50.890;8.054;2023-07-30T15:57:01;22.00;99.90
8953;DHT22;4511;50.890;8.054;2023-07-30T15:59:31;21.90;99.90
8953;DHT22;4511;50.890;8.054;2023-07-30T16:01:58;23.00;99.90
8953;DHT22;4511;50.890;8.054;2023-07-30T16:04:25;24.40;99.90